Hickman, Nebraska
Current Conditions -  °F | °C
As of 12:54 PM on Monday 22 Dec 2014 (Local Time) from KLNK Reporting Station
Overcast Overcast  
Wind Chill: 39°   Ceiling: 1800
Heat Index: 44°   Visibility: 10mi
Dew Point: 40°   Wind: 10mph
Humidity: 85%   Direction: 310°NW
Pressure: 29.45"   Gusts: NA
Location:  40.62°N, 96.63°W
Report Text: KLNK 221854Z 31009KT 10SM BKN018 OVC024 07/04 A2945 RMK AO2 SLP975 T00670044
Loading
Personal Weather Stations






























Interactive Weather Map New forecast layout! Learn more

10-Day Weather Forecast

Advertisements
Track Severe Weather on mobile